createdAt,value
2023-05-17T00:01:33.439Z,12.85
2023-05-17T00:04:36.361Z,12.82
2023-05-17T00:07:39.220Z,12.81
2023-05-17T00:10:43.362Z,12.82
2023-05-17T00:13:46.169Z,12.83
2023-05-17T00:16:48.927Z,12.83
2023-05-17T00:19:51.802Z,12.80
2023-05-17T00:22:54.623Z,12.80
2023-05-17T00:25:57.477Z,12.80
2023-05-17T00:29:00.279Z,12.82
2023-05-17T00:32:03.339Z,12.82
2023-05-17T00:35:06.745Z,12.85
2023-05-17T00:38:09.775Z,12.87
2023-05-17T00:41:13.265Z,12.87
2023-05-17T00:44:16.214Z,12.86
2023-05-17T00:47:19.069Z,12.85
2023-05-17T00:50:22.076Z,12.83
2023-05-17T00:53:26.784Z,12.82
2023-05-17T00:56:31.781Z,12.80
2023-05-17T00:59:34.660Z,12.80
2023-05-17T01:02:38.116Z,12.78
2023-05-17T01:05:41.175Z,12.78
2023-05-17T01:08:45.053Z,12.79
2023-05-17T01:11:58.833Z,12.80
2023-05-17T01:15:14.939Z,12.81
2023-05-17T01:18:26.568Z,12.80
2023-05-17T01:21:41.011Z,12.75
2023-05-17T01:24:59.699Z,12.73
2023-05-17T01:28:04.450Z,12.72
2023-05-17T01:31:08.914Z,12.71
2023-05-17T01:34:13.188Z,12.71
2023-05-17T01:37:16.126Z,12.72
2023-05-17T01:40:20.221Z,12.71
2023-05-17T01:43:29.850Z,12.69
2023-05-17T01:46:43.545Z,12.70
2023-05-17T01:49:52.116Z,12.70
2023-05-17T01:53:10.643Z,12.68
2023-05-17T01:56:21.990Z,12.68
2023-05-17T01:59:26.973Z,12.64
2023-05-17T02:02:30.412Z,12.65
2023-05-17T02:05:33.737Z,12.64
2023-05-17T02:08:36.523Z,12.61
2023-05-17T02:11:39.322Z,12.57
2023-05-17T02:14:42.133Z,12.53
2023-05-17T02:17:46.034Z,12.52
2023-05-17T02:20:50.195Z,12.51
2023-05-17T02:23:53.009Z,12.50
2023-05-17T02:26:55.819Z,12.49
2023-05-17T02:29:58.711Z,12.49
2023-05-17T02:33:03.450Z,12.47
2023-05-17T02:36:07.049Z,12.46
2023-05-17T02:39:09.932Z,12.44
2023-05-17T02:42:14.619Z,12.41
2023-05-17T02:45:17.692Z,12.39
2023-05-17T02:48:21.898Z,12.38
2023-05-17T02:51:24.707Z,12.39
2023-05-17T02:54:27.897Z,12.37
2023-05-17T02:57:31.080Z,12.33
2023-05-17T03:00:34.042Z,12.30
2023-05-17T03:03:37.102Z,12.30
2023-05-17T03:06:41.128Z,12.24
2023-05-17T03:09:44.086Z,12.19
2023-05-17T03:12:46.986Z,12.12
2023-05-17T03:15:52.957Z,12.08
2023-05-17T03:18:56.531Z,12.06
2023-05-17T03:21:59.980Z,12.05
2023-05-17T03:25:05.266Z,12.01
2023-05-17T03:28:09.180Z,11.98
2023-05-17T03:31:12.798Z,11.96
2023-05-17T03:34:16.355Z,11.93
2023-05-17T03:37:19.256Z,11.88
2023-05-17T03:40:23.596Z,11.84
2023-05-17T03:43:26.533Z,11.79
2023-05-17T03:46:29.728Z,11.74
2023-05-17T03:49:33.173Z,11.73
2023-05-17T03:52:36.516Z,11.67
2023-05-17T03:55:39.387Z,11.60
2023-05-17T03:58:42.782Z,11.51
2023-05-17T04:01:47.010Z,11.47
2023-05-17T04:04:53.457Z,11.43
2023-05-17T04:07:56.894Z,11.41
2023-05-17T04:10:59.919Z,11.39
2023-05-17T04:14:03.008Z,11.34
2023-05-17T04:17:06.264Z,11.33
2023-05-17T04:20:10.128Z,11.36
2023-05-17T04:23:13.361Z,11.36
2023-05-17T04:26:16.625Z,11.36
2023-05-17T04:29:19.540Z,11.35
2023-05-17T04:32:24.236Z,11.35
2023-05-17T04:35:27.670Z,11.31
2023-05-17T04:38:31.254Z,11.30
2023-05-17T04:41:34.031Z,11.29
2023-05-17T04:44:37.978Z,11.25
2023-05-17T04:47:41.781Z,11.22
2023-05-17T04:50:46.480Z,11.21
2023-05-17T04:53:49.675Z,11.20
2023-05-17T04:56:53.711Z,11.19
2023-05-17T05:00:15.500Z,11.19
2023-05-17T05:03:19.813Z,11.17
2023-05-17T05:06:23.200Z,11.16
2023-05-17T05:09:26.040Z,11.16
2023-05-17T05:12:29.078Z,11.13
2023-05-17T05:15:32.819Z,11.12
2023-05-17T05:18:36.547Z,11.13
2023-05-17T05:21:39.863Z,11.10
2023-05-17T05:24:44.041Z,11.09
2023-05-17T05:27:47.098Z,11.06
2023-05-17T05:30:49.985Z,11.02
2023-05-17T05:33:53.176Z,10.99
2023-05-17T05:36:56.270Z,10.98
2023-05-17T05:39:59.912Z,10.97
2023-05-17T05:43:02.811Z,10.96
2023-05-17T05:46:05.974Z,10.93
2023-05-17T05:49:08.986Z,10.92
2023-05-17T05:52:12.075Z,10.92
2023-05-17T05:55:15.257Z,10.94
2023-05-17T05:58:18.102Z,10.97
2023-05-17T06:01:22.418Z,10.97
2023-05-17T06:04:36.333Z,10.99
2023-05-17T06:07:47.191Z,11.00
2023-05-17T06:10:50.054Z,11.00
2023-05-17T06:13:52.831Z,11.00
2023-05-17T06:16:55.671Z,11.01
2023-05-17T06:19:58.525Z,11.02
2023-05-17T06:23:02.081Z,11.01
2023-05-17T06:26:09.244Z,11.02
2023-05-17T06:29:12.203Z,11.04
2023-05-17T06:32:15.023Z,11.05
2023-05-17T06:35:17.968Z,11.04
2023-05-17T06:38:20.786Z,11.03
2023-05-17T06:41:23.629Z,11.04
2023-05-17T06:44:26.464Z,11.02
2023-05-17T06:47:30.293Z,10.99
2023-05-17T06:50:33.456Z,10.95
2023-05-17T06:53:36.417Z,10.93
2023-05-17T06:56:39.244Z,10.93
2023-05-17T06:59:42.156Z,10.94
2023-05-17T07:02:45.046Z,10.98
2023-05-17T07:05:48.037Z,11.03
2023-05-17T07:08:51.150Z,11.08
2023-05-17T07:11:56.708Z,11.08
2023-05-17T07:14:59.812Z,11.07
2023-05-17T07:18:02.759Z,11.07
2023-05-17T07:21:06.357Z,11.06
2023-05-17T07:24:09.587Z,11.03
2023-05-17T07:27:12.824Z,11.01
2023-05-17T07:30:15.743Z,10.99
2023-05-17T07:33:18.574Z,10.93
2023-05-17T07:36:21.467Z,10.90
2023-05-17T07:39:24.544Z,10.89
2023-05-17T07:42:27.364Z,10.89
2023-05-17T07:45:30.618Z,10.89
2023-05-17T07:48:33.759Z,10.87
2023-05-17T07:51:36.773Z,10.86
2023-05-17T07:54:41.786Z,10.88
2023-05-17T07:57:45.456Z,10.90
2023-05-17T08:00:49.516Z,10.92
2023-05-17T08:03:52.872Z,10.92
2023-05-17T08:06:55.832Z,10.94
2023-05-17T08:10:01.066Z,10.98
2023-05-17T08:13:06.291Z,11.02
2023-05-17T08:16:14.014Z,11.05
2023-05-17T08:19:18.260Z,11.08
2023-05-17T08:22:21.216Z,11.11
2023-05-17T08:25:24.064Z,11.15
2023-05-17T08:28:27.038Z,11.20
2023-05-17T08:31:29.903Z,11.26
2023-05-17T08:34:32.703Z,11.34
2023-05-17T08:37:35.463Z,11.40
2023-05-17T08:40:39.352Z,11.45
2023-05-17T08:43:42.812Z,11.49
2023-05-17T08:46:53.898Z,11.51
2023-05-17T08:50:05.865Z,11.54
2023-05-17T08:53:10.325Z,11.59
2023-05-17T08:56:15.897Z,11.62
2023-05-17T08:59:21.901Z,11.66
2023-05-17T09:02:25.966Z,11.68
2023-05-17T09:05:28.949Z,11.67
2023-05-17T09:08:33.003Z,11.64
2023-05-17T09:11:36.414Z,11.60
2023-05-17T09:14:39.157Z,11.58
2023-05-17T09:17:43.437Z,11.58
2023-05-17T09:20:52.504Z,11.58
2023-05-17T09:27:03.915Z,11.60
2023-05-17T09:30:10.855Z,11.57
2023-05-17T09:33:15.273Z,11.57
2023-05-17T09:36:23.324Z,11.62
2023-05-17T09:39:26.344Z,11.71
2023-05-17T09:42:29.321Z,11.79
2023-05-17T09:45:33.245Z,11.88
2023-05-17T09:48:39.051Z,11.93
2023-05-17T09:51:42.850Z,11.97
2023-05-17T09:54:53.512Z,11.99
2023-05-17T09:58:03.394Z,11.96
2023-05-17T10:01:07.482Z,11.95
2023-05-17T10:04:11.899Z,11.95
2023-05-17T10:07:21.530Z,11.97
2023-05-17T10:10:24.620Z,12.01
2023-05-17T10:13:33.349Z,12.04
2023-05-17T10:16:38.283Z,12.05
2023-05-17T10:19:42.229Z,12.05
2023-05-17T10:22:46.434Z,12.12
2023-05-17T10:25:50.864Z,12.16
2023-05-17T10:29:00.690Z,12.20
2023-05-17T10:32:07.325Z,12.28
2023-05-17T10:35:12.213Z,12.35
2023-05-17T10:38:16.013Z,12.44
2023-05-17T10:41:24.555Z,12.53
2023-05-17T10:44:30.354Z,12.59
2023-05-17T10:47:34.434Z,12.66
2023-05-17T10:50:50.608Z,12.77
2023-05-17T10:54:18.443Z,12.89
2023-05-17T10:58:08.304Z,13.03
2023-05-17T11:01:11.322Z,13.13
2023-05-17T11:04:33.487Z,13.24
2023-05-17T11:07:37.476Z,13.44
2023-05-17T11:11:19.328Z,13.59
2023-05-17T11:14:22.856Z,13.72
2023-05-17T11:17:37.093Z,13.84
2023-05-17T11:20:40.240Z,13.95
2023-05-17T11:23:47.594Z,13.93
2023-05-17T11:26:50.783Z,13.89
2023-05-17T11:29:58.974Z,13.86
2023-05-17T11:33:11.092Z,13.84
2023-05-17T11:36:22.061Z,13.91
2023-05-17T11:39:25.517Z,14.05
2023-05-17T11:42:28.649Z,14.15
2023-05-17T11:45:50.039Z,14.18
2023-05-17T11:48:54.694Z,14.23
2023-05-17T11:51:57.849Z,14.30
2023-05-17T11:55:00.870Z,14.35
2023-05-17T11:58:04.773Z,14.36
2023-05-17T12:01:09.106Z,14.42
2023-05-17T12:04:12.140Z,14.53
2023-05-17T12:07:15.594Z,14.59
2023-05-17T12:10:18.843Z,14.62
2023-05-17T12:13:21.795Z,14.58
2023-05-17T12:16:25.802Z,14.50
2023-05-17T12:19:30.116Z,14.46
2023-05-17T12:22:33.060Z,14.41
2023-05-17T12:25:36.144Z,14.43
2023-05-17T12:28:41.095Z,14.44
2023-05-17T12:31:48.369Z,14.37
2023-05-17T12:34:51.948Z,14.33
2023-05-17T12:37:55.126Z,14.24
2023-05-17T12:41:00.712Z,14.16
2023-05-17T12:44:14.490Z,14.08
2023-05-17T12:47:18.710Z,14.05
2023-05-17T12:50:31.721Z,14.09
2023-05-17T12:53:37.430Z,14.08
2023-05-17T12:56:44.059Z,14.05
2023-05-17T12:59:47.848Z,14.01
2023-05-17T13:02:50.822Z,13.96
2023-05-17T13:06:02.991Z,13.91
2023-05-17T13:09:06.676Z,13.87
2023-05-17T13:12:09.626Z,13.87
2023-05-17T13:15:12.484Z,13.86
2023-05-17T13:18:16.412Z,13.86
2023-05-17T13:21:20.727Z,13.84
2023-05-17T13:24:23.627Z,13.85
2023-05-17T13:27:26.436Z,13.89
2023-05-17T13:30:30.266Z,13.94
2023-05-17T13:33:33.590Z,14.00
2023-05-17T13:36:36.465Z,13.99
2023-05-17T13:39:39.973Z,14.02
2023-05-17T13:42:42.952Z,14.12
2023-05-17T13:45:46.106Z,14.20
2023-05-17T13:48:49.073Z,14.23
2023-05-17T13:51:52.034Z,14.27
2023-05-17T13:54:55.067Z,14.33
2023-05-17T13:57:57.809Z,14.32
2023-05-17T14:01:00.671Z,14.28
2023-05-17T14:04:03.785Z,14.23
2023-05-17T14:07:07.166Z,14.12
2023-05-17T14:10:12.756Z,14.04
2023-05-17T14:13:15.597Z,13.99
2023-05-17T14:16:18.425Z,13.95
2023-05-17T14:19:21.328Z,13.92
2023-05-17T14:22:24.212Z,13.90
2023-05-17T14:25:27.337Z,13.87
2023-05-17T14:28:30.406Z,13.81
2023-05-17T14:31:33.605Z,13.80
2023-05-17T14:34:36.463Z,13.82
2023-05-17T14:37:39.211Z,13.86
2023-05-17T14:40:42.041Z,13.82
2023-05-17T14:43:45.141Z,13.79
2023-05-17T14:46:47.932Z,13.77
2023-05-17T14:49:51.013Z,13.74
2023-05-17T14:52:53.822Z,13.75
2023-05-17T14:55:57.935Z,13.76
2023-05-17T14:59:00.733Z,13.77
2023-05-17T15:02:05.176Z,13.73
2023-05-17T15:05:08.685Z,13.72
2023-05-17T15:08:12.405Z,13.68
2023-05-17T15:11:15.301Z,13.64
2023-05-17T15:14:24.885Z,13.61
2023-05-17T15:17:28.036Z,13.62
2023-05-17T15:20:31.433Z,13.57
2023-05-17T15:23:34.389Z,13.53
2023-05-17T15:26:37.183Z,13.49
2023-05-17T15:29:42.181Z,13.45
2023-05-17T15:32:45.044Z,13.37
2023-05-17T15:35:47.864Z,13.33
2023-05-17T15:38:50.737Z,13.31
2023-05-17T15:41:53.778Z,13.29
2023-05-17T15:44:56.623Z,13.30
2023-05-17T15:48:02.042Z,13.30
2023-05-17T15:51:05.071Z,13.26
2023-05-17T15:54:07.919Z,13.21
2023-05-17T15:57:10.773Z,13.19
2023-05-17T16:00:14.304Z,13.17
2023-05-17T16:03:17.207Z,13.16
2023-05-17T16:06:22.011Z,13.16
2023-05-17T16:09:25.728Z,13.13
2023-05-17T16:12:28.505Z,13.06
2023-05-17T16:15:31.618Z,13.04
2023-05-17T16:18:34.630Z,13.02
2023-05-17T16:21:37.618Z,12.98
2023-05-17T16:24:40.698Z,12.94
2023-05-17T16:27:43.550Z,12.92
2023-05-17T16:30:46.415Z,12.89
2023-05-17T16:33:51.293Z,12.85
2023-05-17T16:36:54.269Z,12.81
2023-05-17T16:39:57.794Z,12.74
2023-05-17T16:43:01.008Z,12.67
2023-05-17T16:46:03.860Z,12.63
2023-05-17T16:49:07.319Z,12.60
2023-05-17T16:52:10.226Z,12.59
2023-05-17T16:55:13.117Z,12.55
2023-05-17T16:58:15.940Z,12.48
2023-05-17T17:01:18.769Z,12.44
2023-05-17T17:04:22.064Z,12.39
2023-05-17T17:07:24.898Z,12.35
2023-05-17T17:10:27.928Z,12.29
2023-05-17T17:13:31.405Z,12.24
2023-05-17T17:16:34.355Z,12.20
2023-05-17T17:19:37.236Z,12.15
2023-05-17T17:22:41.504Z,12.11
2023-05-17T17:25:44.440Z,12.11
2023-05-17T17:28:47.253Z,12.07
2023-05-17T17:31:50.142Z,11.99
2023-05-17T17:34:52.984Z,11.95
2023-05-17T17:37:55.895Z,11.93
2023-05-17T17:40:58.659Z,11.89
2023-05-17T17:44:01.466Z,11.86
2023-05-17T17:47:04.386Z,11.83
2023-05-17T17:50:08.315Z,11.81
2023-05-17T17:53:11.359Z,11.76
2023-05-17T17:56:14.431Z,11.70
2023-05-17T17:59:17.200Z,11.67
2023-05-17T18:02:20.150Z,11.65
2023-05-17T18:05:23.164Z,11.61
2023-05-17T18:08:26.028Z,11.62
2023-05-17T18:11:28.922Z,11.63
2023-05-17T18:14:31.776Z,11.58
2023-05-17T18:17:34.662Z,11.56
2023-05-17T18:20:37.573Z,11.54
2023-05-17T18:23:40.434Z,11.53
2023-05-17T18:26:43.205Z,11.50
2023-05-17T18:29:46.243Z,11.49
2023-05-17T18:32:49.210Z,11.48
2023-05-17T18:35:52.173Z,11.45
2023-05-17T18:38:58.722Z,11.40
2023-05-17T18:42:01.900Z,11.38
2023-05-17T18:45:05.552Z,11.35
2023-05-17T18:48:08.491Z,11.32
2023-05-17T18:51:11.429Z,11.31
2023-05-17T18:54:14.256Z,11.32
2023-05-17T18:57:17.053Z,11.31
2023-05-17T19:00:21.217Z,11.31
2023-05-17T19:03:24.297Z,11.30
2023-05-17T19:06:29.964Z,11.31
2023-05-17T19:09:34.541Z,11.26
2023-05-17T19:12:37.696Z,11.21
2023-05-17T19:15:43.609Z,11.17
2023-05-17T19:18:46.575Z,11.12
2023-05-17T19:21:49.384Z,11.09
2023-05-17T19:24:52.245Z,11.09
2023-05-17T19:27:55.073Z,11.07
2023-05-17T19:30:57.896Z,11.05
2023-05-17T19:34:01.829Z,11.04
2023-05-17T19:37:04.747Z,11.04
2023-05-17T19:40:08.364Z,11.04
2023-05-17T19:43:11.688Z,11.02
2023-05-17T19:46:14.518Z,10.98
2023-05-17T19:49:17.520Z,10.95
2023-05-17T19:52:20.530Z,10.92
2023-05-17T19:55:24.680Z,10.89
2023-05-17T19:58:29.370Z,10.89
2023-05-17T20:01:32.386Z,10.89
2023-05-17T20:04:35.610Z,10.88
2023-05-17T20:07:39.459Z,10.86
2023-05-17T20:10:42.384Z,10.86
2023-05-17T20:13:45.677Z,10.84
2023-05-17T20:16:48.866Z,10.81
2023-05-17T20:19:52.135Z,10.80
2023-05-17T20:22:55.061Z,10.75
2023-05-17T20:25:57.915Z,10.74
2023-05-17T20:29:01.055Z,10.73
2023-05-17T20:32:04.500Z,10.72
2023-05-17T20:35:08.011Z,10.70
2023-05-17T20:38:10.991Z,10.66
2023-05-17T20:41:16.020Z,10.63
2023-05-17T20:44:19.518Z,10.62
2023-05-17T20:47:22.678Z,10.58
2023-05-17T20:50:25.868Z,10.58
2023-05-17T20:53:32.147Z,10.58
2023-05-17T20:56:37.019Z,10.57
2023-05-17T20:59:39.842Z,10.58
2023-05-17T21:02:42.793Z,10.62
2023-05-17T21:05:45.864Z,10.63
2023-05-17T21:08:48.698Z,10.63
2023-05-17T21:11:52.530Z,10.62
2023-05-17T21:18:18.159Z,10.56
2023-05-17T21:21:21.527Z,10.53
2023-05-17T21:24:24.389Z,10.50
2023-05-17T21:27:27.598Z,10.49
2023-05-17T21:30:31.129Z,10.44
2023-05-17T21:33:34.144Z,10.40
2023-05-17T21:36:37.076Z,10.37
2023-05-17T21:39:39.887Z,10.35
2023-05-17T21:42:42.973Z,10.32
2023-05-17T21:45:45.929Z,10.30
2023-05-17T21:48:48.760Z,10.26
2023-05-17T21:51:51.588Z,10.21
2023-05-17T21:54:54.392Z,10.18
2023-05-17T21:57:57.202Z,10.14
2023-05-17T22:01:00.202Z,10.09
2023-05-17T22:04:03.360Z,10.03
2023-05-17T22:07:07.043Z,9.99
2023-05-17T22:10:10.491Z,9.95
2023-05-17T22:13:15.941Z,9.92
2023-05-17T22:16:19.068Z,9.89
2023-05-17T22:19:23.384Z,9.85
2023-05-17T22:22:27.094Z,9.83
2023-05-17T22:25:30.055Z,9.79
2023-05-17T22:28:32.872Z,9.78
2023-05-17T22:31:37.861Z,9.76
2023-05-17T22:34:42.424Z,9.70
2023-05-17T22:37:45.428Z,9.63
2023-05-17T22:40:48.241Z,9.57
2023-05-17T22:43:51.097Z,9.53
2023-05-17T22:46:57.640Z,9.49
2023-05-17T22:50:00.929Z,9.44
2023-05-17T22:53:06.069Z,9.41
2023-05-17T22:56:08.969Z,9.38
2023-05-17T22:59:11.780Z,9.35
2023-05-17T23:02:14.812Z,9.32
2023-05-17T23:05:18.810Z,9.30
2023-05-17T23:08:22.376Z,9.28
2023-05-17T23:11:25.109Z,9.26
2023-05-17T23:14:27.892Z,9.24
2023-05-17T23:17:33.784Z,9.21
2023-05-17T23:20:36.687Z,9.15
2023-05-17T23:23:40.648Z,9.08
2023-05-17T23:26:43.461Z,9.06
2023-05-17T23:29:46.621Z,9.05
2023-05-17T23:32:51.297Z,9.04
2023-05-17T23:35:55.531Z,9.03
2023-05-17T23:38:58.293Z,9.07
2023-05-17T23:42:01.035Z,9.08
2023-05-17T23:45:04.530Z,9.06
2023-05-17T23:48:09.822Z,9.04
2023-05-17T23:51:12.855Z,9.02
2023-05-17T23:54:16.195Z,8.99
2023-05-17T23:57:19.131Z,8.94
